Time;durP1;ratioP1;P1;durP2;ratioP2;P2;SDS_P1;SDS_P2;PMS_P1;PMS_P2;Temp;Humidity;BMP_temperature;BMP_pressure;BME280_temperature;BME280_humidity;BME280_pressure;Samples;Min_cycle;Max_cycle;Signal;HPM_P1;HPM_P2
2023/08/04 00:02:12;;;;;;;6.25;2.70;;;22.50;97.60;;;;;;5032934;28;20077;-66
2023/08/04 00:04:38;;;;;;;5.25;2.50;;;22.50;96.40;;;;;;5033481;28;20037;-70
2023/08/04 00:07:04;;;;;;;4.25;2.17;;;22.60;96.40;;;;;;5033660;28;20124;-70
2023/08/04 00:09:30;;;;;;;5.82;2.40;;;22.40;97.50;;;;;;5030842;28;20151;-71
2023/08/04 00:11:55;;;;;;;5.72;2.20;;;22.40;97.60;;;;;;5033997;28;20033;-71
2023/08/04 00:14:21;;;;;;;4.60;2.20;;;22.40;97.70;;;;;;5021200;28;20133;-68
2023/08/04 00:16:47;;;;;;;6.50;2.55;;;22.40;97.60;;;;;;5022728;28;20064;-65
2023/08/04 00:19:12;;;;;;;6.97;2.58;;;22.60;97.80;;;;;;5034651;28;20061;-67
2023/08/04 00:21:38;;;;;;;6.25;2.50;;;22.50;96.30;;;;;;5033961;28;20042;-68
2023/08/04 00:24:04;;;;;;;4.88;2.40;;;22.40;96.30;;;;;;5033095;28;20053;-63
2023/08/04 00:26:31;;;;;;;7.45;2.83;;;22.40;96.30;;;;;;5031372;28;20480;-65
2023/08/04 00:28:57;;;;;;;5.38;2.70;;;22.60;97.70;;;;;;5030033;28;20045;-64
2023/08/04 00:31:23;;;;;;;4.68;2.10;;;22.60;96.30;;;;;;5031837;28;20122;-62
2023/08/04 00:33:48;;;;;;;5.43;2.50;;;22.70;96.30;;;;;;5028603;28;20053;-62
2023/08/04 00:36:14;;;;;;;6.50;2.70;;;22.60;96.30;;;;;;5033494;28;20045;-63
2023/08/04 00:38:40;;;;;;;5.07;2.35;;;22.60;96.30;;;;;;5033109;28;20128;-63
2023/08/04 00:41:06;;;;;;;5.18;2.10;;;22.40;96.20;;;;;;5032179;28;20077;-65
2023/08/04 00:43:31;;;;;;;6.45;2.40;;;22.40;97.40;;;;;;5028872;28;20049;-62
2023/08/04 00:45:57;;;;;;;5.68;2.25;;;22.30;97.20;;;;;;5033125;28;20041;-62
2023/08/04 00:48:23;;;;;;;6.22;2.38;;;22.20;97.60;;;;;;5033484;28;20065;-62
2023/08/04 00:50:49;;;;;;;5.47;2.15;;;22.30;97.50;;;;;;5009730;28;20174;-62
2023/08/04 00:53:14;;;;;;;5.05;2.10;;;22.30;96.20;;;;;;5032607;28;20049;-62
2023/08/04 00:55:41;;;;;;;5.13;2.20;;;22.30;97.30;;;;;;5033035;28;20549;-62
2023/08/04 00:58:07;;;;;;;6.32;2.63;;;22.40;96.30;;;;;;5030037;28;20045;-62
2023/08/04 01:00:33;;;;;;;5.03;2.08;;;22.30;97.60;;;;;;5032772;28;20038;-62
2023/08/04 01:02:59;;;;;;;5.22;2.33;;;22.30;97.30;;;;;;5031930;28;20095;-62
2023/08/04 01:05:27;;;;;;;5.30;2.20;;;22.60;96.20;;;;;;5032722;28;20049;-62
2023/08/04 01:07:56;;;;;;;5.15;2.10;;;22.50;97.70;;;;;;5047703;28;20045;-62
2023/08/04 01:10:34;;;;;;;5.55;2.50;;;22.30;97.30;;;;;;5033866;28;20084;-63
2023/08/04 01:13:03;;;;;;;5.00;2.05;;;22.50;97.30;;;;;;5025523;28;20092;-66
2023/08/04 01:15:29;;;;;;;5.82;2.45;;;22.30;97.20;;;;;;5015096;28;20045;-63
2023/08/04 01:17:55;;;;;;;5.00;2.05;;;;;;;;;;5025466;28;20049;-65
2023/08/04 01:20:25;;;;;;;5.68;2.15;;;22.40;95.40;;;;;;5032782;28;20046;-63
2023/08/04 01:22:50;;;;;;;4.60;2.20;;;22.40;95.60;;;;;;5031425;28;20091;-63
2023/08/04 01:25:16;;;;;;;5.90;2.17;;;22.40;96.20;;;;;;5020645;28;20448;-63
2023/08/04 01:27:52;;;;;;;5.28;2.28;;;22.30;97.20;;;;;;5045547;28;20085;-64
2023/08/04 01:30:22;;;;;;;4.97;2.22;;;22.40;96.40;;;;;;5050042;28;20080;-63
2023/08/04 01:32:48;;;;;;;5.38;2.03;;;22.40;96.20;;;;;;5026759;28;20045;-63
2023/08/04 01:35:14;;;;;;;4.80;2.22;;;22.40;97.10;;;;;;5032463;28;20050;-65
2023/08/04 01:37:40;;;;;;;4.97;2.22;;;22.60;97.50;;;;;;5014829;28;20514;-63
2023/08/04 01:40:06;;;;;;;5.10;2.20;;;22.40;97.20;;;;;;5031273;28;20052;-62
2023/08/04 01:42:32;;;;;;;5.22;2.17;;;22.50;97.50;;;;;;5002865;28;20049;-61
2023/08/04 01:44:58;;;;;;;5.47;1.92;;;22.30;97.10;;;;;;5031761;28;20053;-63
2023/08/04 01:47:23;;;;;;;5.55;2.00;;;22.10;96.10;;;;;;5014352;28;20085;-65
2023/08/04 01:49:49;;;;;;;4.85;2.30;;;22.20;97.10;;;;;;5011954;28;20177;-64
2023/08/04 01:52:15;;;;;;;4.70;2.03;;;22.40;96.10;;;;;;5029610;28;20407;-68
2023/08/04 01:54:40;;;;;;;5.15;2.10;;;22.40;96.10;;;;;;5030284;28;20056;-67
2023/08/04 01:57:06;;;;;;;4.95;2.00;;;22.20;97.10;;;;;;5029037;28;20075;-69
2023/08/04 01:59:32;;;;;;;3.78;2.03;;;22.30;96.00;;;;;;5030713;28;20503;-73
2023/08/04 02:01:58;;;;;;;4.63;2.03;;;22.30;97.20;;;;;;5021602;28;20438;-63
2023/08/04 02:04:24;;;;;;;5.07;2.10;;;22.20;97.00;;;;;;5029812;28;20041;-68
2023/08/04 02:06:50;;;;;;;4.15;1.80;;;22.30;96.00;;;;;;5031316;28;20038;-65
2023/08/04 02:09:16;;;;;;;4.82;2.00;;;22.30;97.10;;;;;;5028217;28;20432;-66
2023/08/04 02:11:42;;;;;;;4.38;2.13;;;22.40;97.10;;;;;;5013244;28;20050;-68
2023/08/04 02:14:08;;;;;;;5.70;1.90;;;22.20;97.10;;;;;;5012960;28;20050;-63
2023/08/04 02:16:33;;;;;;;5.70;2.30;;;22.40;97.20;;;;;;5015413;28;20053;-66
2023/08/04 02:19:17;;;;;;;3.50;1.67;;;22.30;97.10;;;;;;5032592;28;20430;-66
2023/08/04 02:21:43;;;;;;;4.18;1.88;;;22.10;97.00;;;;;;5020264;28;20044;-64
2023/08/04 02:24:08;;;;;;;5.07;2.00;;;22.20;97.10;;;;;;5013948;28;20531;-65
2023/08/04 02:26:34;;;;;;;5.07;2.00;;;22.30;97.10;;;;;;5031414;28;20514;-69
2023/08/04 02:29:00;;;;;;;4.88;2.10;;;22.40;96.00;;;;;;5032858;28;20041;-70
2023/08/04 02:31:27;;;;;;;4.95;2.10;;;22.20;97.00;;;;;;5030348;28;20053;-71
2023/08/04 02:33:54;;;;;;;5.57;2.00;;;22.20;96.10;;;;;;5029999;28;20037;-67
2023/08/04 02:36:20;;;;;;;3.75;1.80;;;22.40;96.10;;;;;;5030643;28;20057;-68
2023/08/04 02:38:45;;;;;;;5.43;2.00;;;22.20;97.20;;;;;;5019738;28;20049;-62
2023/08/04 02:41:11;;;;;;;5.20;1.90;;;22.20;97.10;;;;;;5011157;28;20050;-62
2023/08/04 02:43:37;;;;;;;5.43;2.00;;;22.30;97.40;;;;;;5026953;28;20045;-63
2023/08/04 02:46:03;;;;;;;4.25;1.90;;;22.60;97.60;;;;;;5031059;28;20045;-62
2023/08/04 02:48:29;;;;;;;5.32;1.80;;;22.40;97.20;;;;;;5027718;28;20058;-62
2023/08/04 02:51:13;;;;;;;4.22;1.80;;;22.10;96.10;;;;;;5015054;28;20046;-62
2023/08/04 02:53:43;;;;;;;5.78;2.10;;;22.10;97.00;;;;;;5020874;28;20062;-62
2023/08/04 02:56:16;;;;;;;6.57;2.05;;;22.30;97.10;;;;;;5027256;28;20053;-62
2023/08/04 02:58:42;;;;;;;5.75;1.85;;;22.30;97.10;;;;;;5028612;28;20103;-62
2023/08/04 03:01:08;;;;;;;3.20;1.73;;;22.50;97.10;;;;;;5032163;28;20513;-62
2023/08/04 03:03:34;;;;;;;4.32;1.88;;;21.90;97.40;;;;;;5028150;28;20050;-62
2023/08/04 03:06:00;;;;;;;5.40;2.08;;;22.30;96.00;;;;;;5028321;28;20487;-63
2023/08/04 03:08:26;;;;;;;4.15;1.90;;;;;;;;;;5010221;28;20045;-74
2023/08/04 03:10:52;;;;;;;4.40;1.80;;;22.20;97.00;;;;;;5062886;28;20049;-62
2023/08/04 03:13:18;;;;;;;4.65;1.95;;;22.00;97.00;;;;;;5014188;28;20060;-62
2023/08/04 03:15:43;;;;;;;4.18;1.70;;;22.40;97.10;;;;;;5017290;28;20464;-63
2023/08/04 03:18:09;;;;;;;3.97;1.73;;;22.20;97.20;;;;;;5010926;28;20412;-62
2023/08/04 03:20:39;;;;;;;3.60;1.77;;;22.20;97.30;;;;;;5023853;28;20053;-62
2023/08/04 03:23:05;;;;;;;3.90;1.75;;;22.20;97.00;;;;;;5028478;28;20068;-62
2023/08/04 03:25:31;;;;;;;3.75;1.90;;;22.10;97.00;;;;;;4995971;28;20057;-63
2023/08/04 03:27:57;;;;;;;6.90;1.67;;;22.00;97.00;;;;;;5064137;28;20149;-62
2023/08/04 03:30:23;;;;;;;4.00;1.70;;;;;;;;;;5012900;28;20059;-68
2023/08/04 03:32:48;;;;;;;4.40;1.92;;;22.30;95.40;;;;;;5060813;28;20085;-62
2023/08/04 03:35:14;;;;;;;3.65;1.70;;;22.30;96.30;;;;;;5030330;28;20108;-62
2023/08/04 03:37:40;;;;;;;4.40;1.70;;;22.10;97.00;;;;;;5030856;28;20099;-62
2023/08/04 03:40:07;;;;;;;3.97;1.98;;;22.20;97.10;;;;;;5029879;28;20089;-62
2023/08/04 03:42:36;;;;;;;2.95;1.33;;;22.20;97.10;;;;;;5028773;28;20085;-62
2023/08/04 03:45:02;;;;;;;4.35;1.75;;;;;;;;;;5045078;28;20088;-63
2023/08/04 03:47:29;;;;;;;3.45;1.50;;;22.10;97.00;;;;;;5030030;28;20451;-62
2023/08/04 03:49:56;;;;;;;5.63;1.70;;;22.20;97.00;;;;;;5031525;28;20055;-62
2023/08/04 03:52:22;;;;;;;4.85;1.80;;;22.20;97.00;;;;;;5030627;28;20084;-62
2023/08/04 03:54:48;;;;;;;6.40;1.90;;;22.30;97.00;;;;;;5031352;28;20064;-62
2023/08/04 03:57:13;;;;;;;4.50;1.80;;;22.20;97.30;;;;;;5025708;28;20058;-62
2023/08/04 03:59:39;;;;;;;3.83;1.70;;;22.10;95.90;;;;;;5023635;28;20063;-61
2023/08/04 04:02:05;;;;;;;4.35;1.90;;;22.10;97.20;;;;;;5027117;28;20121;-62
2023/08/04 04:04:31;;;;;;;5.97;1.80;;;22.10;95.80;;;;;;5044704;28;20046;-62
2023/08/04 04:06:57;;;;;;;6.72;1.80;;;22.30;97.10;;;;;;5029804;28;20244;-62
2023/08/04 04:09:22;;;;;;;4.07;1.73;;;22.30;97.00;;;;;;5030395;28;20108;-62
2023/08/04 04:11:48;;;;;;;5.28;1.65;;;22.00;97.30;;;;;;5015710;28;20041;-63
2023/08/04 04:14:14;;;;;;;4.88;1.80;;;22.30;97.00;;;;;;5018413;28;20461;-61
2023/08/04 04:16:39;;;;;;;5.40;1.88;;;22.00;95.80;;;;;;5034212;28;20378;-62
2023/08/04 04:19:05;;;;;;;4.18;1.92;;;22.10;97.40;;;;;;5033160;28;20526;-62
2023/08/04 04:21:31;;;;;;;4.47;1.60;;;22.00;97.20;;;;;;5033641;28;20073;-62
2023/08/04 04:23:57;;;;;;;5.18;1.80;;;22.10;96.90;;;;;;5032985;28;20175;-62
2023/08/04 04:26:23;;;;;;;4.18;1.80;;;22.00;95.80;;;;;;5032087;28;20120;-62
2023/08/04 04:28:49;;;;;;;4.90;1.98;;;21.90;95.90;;;;;;5045558;28;20045;-62
2023/08/04 04:31:15;;;;;;;4.35;1.75;;;22.10;97.00;;;;;;5031477;28;20180;-62
2023/08/04 04:33:41;;;;;;;6.10;1.90;;;22.20;96.90;;;;;;5013931;28;20038;-62
2023/08/04 04:36:06;;;;;;;5.55;1.80;;;22.10;96.90;;;;;;5015065;28;20100;-61
2023/08/04 04:38:32;;;;;;;4.28;1.50;;;22.30;97.40;;;;;;5031658;28;20050;-62
2023/08/04 04:40:58;;;;;;;4.72;1.73;;;22.30;97.00;;;;;;5031999;28;20060;-62
2023/08/04 04:43:24;;;;;;;3.83;1.58;;;22.10;95.90;;;;;;5016766;28;20057;-62
2023/08/04 04:45:51;;;;;;;4.85;1.50;;;22.10;97.00;;;;;;5027760;28;20042;-62
2023/08/04 04:48:17;;;;;;;4.70;1.50;;;22.20;95.80;;;;;;5013139;28;20072;-62
2023/08/04 04:50:43;;;;;;;3.17;1.40;;;22.20;97.30;;;;;;5014469;28;20056;-62
2023/08/04 04:53:09;;;;;;;3.90;1.30;;;22.30;96.90;;;;;;5014323;28;20129;-61
2023/08/04 04:55:35;;;;;;;3.25;1.60;;;22.00;96.90;;;;;;5016046;28;20403;-61
2023/08/04 04:58:01;;;;;;;3.58;1.48;;;22.00;96.80;;;;;;5025667;28;20125;-61
2023/08/04 05:00:27;;;;;;;3.83;1.38;;;22.10;96.90;;;;;;5034297;28;20427;-61
2023/08/04 05:02:52;;;;;;;2.45;1.42;;;22.10;97.10;;;;;;5033340;28;20103;-61
2023/08/04 05:05:18;;;;;;;3.78;1.70;;;22.30;97.30;;;;;;5028906;28;20534;-63
2023/08/04 05:07:45;;;;;;;3.47;1.35;;;;;;;;;;5023007;28;20518;-62
2023/08/04 05:10:10;;;;;;;2.78;1.40;;;22.20;96.90;;;;;;5031712;28;20092;-62
2023/08/04 05:12:37;;;;;;;3.20;1.50;;;22.10;96.80;;;;;;5013133;28;20472;-64
2023/08/04 05:15:03;;;;;;;5.63;1.65;;;22.10;95.80;;;;;;5013478;28;20488;-63
2023/08/04 05:17:29;;;;;;;3.78;1.50;;;22.30;97.10;;;;;;5037182;28;20049;-63
2023/08/04 05:19:55;;;;;;;3.10;1.20;;;22.10;96.80;;;;;;5032365;28;20060;-63
2023/08/04 05:22:20;;;;;;;3.17;1.42;;;22.20;96.90;;;;;;5029418;28;20100;-63
2023/08/04 05:24:46;;;;;;;3.88;1.30;;;22.00;95.80;;;;;;5045725;28;20054;-63
2023/08/04 05:27:12;;;;;;;2.83;1.30;;;22.20;96.90;;;;;;5048279;28;20100;-64
2023/08/04 05:29:38;;;;;;;4.32;1.30;;;22.20;96.90;;;;;;5029780;28;20037;-64
2023/08/04 05:32:04;;;;;;;2.80;1.40;;;22.10;96.80;;;;;;5017485;28;20404;-64
2023/08/04 05:34:30;;;;;;;3.95;1.73;;;22.20;96.90;;;;;;5012581;28;20145;-64
2023/08/04 05:36:56;;;;;;;3.17;1.40;;;22.30;96.90;;;;;;5013621;28;20427;-64
2023/08/04 05:39:22;;;;;;;4.82;1.38;;;22.20;97.20;;;;;;5022998;28;20050;-62
2023/08/04 05:41:48;;;;;;;3.60;1.50;;;22.20;97.10;;;;;;5020568;28;20040;-63
2023/08/04 05:44:13;;;;;;;3.90;1.60;;;22.20;96.80;;;;;;5027064;28;20045;-63
2023/08/04 05:46:39;;;;;;;3.25;1.40;;;22.00;96.90;;;;;;5013801;28;20091;-64
2023/08/04 05:49:05;;;;;;;1.90;1.30;;;22.20;96.00;;;;;;5029941;28;20103;-63
2023/08/04 05:51:31;;;;;;;2.70;1.25;;;22.20;96.80;;;;;;5032748;28;20041;-63
2023/08/04 05:53:57;;;;;;;3.58;1.30;;;22.20;96.20;;;;;;5030784;28;20065;-63
2023/08/04 05:56:22;;;;;;;1.95;1.25;;;22.30;96.70;;;;;;5028946;28;20129;-63
2023/08/04 05:58:48;;;;;;;3.55;1.58;;;22.30;96.60;;;;;;5029529;28;20103;-63
2023/08/04 06:01:14;;;;;;;3.20;1.40;;;22.40;95.60;;;;;;5015122;28;20510;-63
2023/08/04 06:03:40;;;;;;;2.33;1.13;;;22.20;96.70;;;;;;5028407;28;20046;-63
2023/08/04 06:06:05;;;;;;;2.70;1.42;;;22.30;96.50;;;;;;5026252;28;20037;-63
2023/08/04 06:08:31;;;;;;;3.50;1.73;;;22.40;96.90;;;;;;5030809;28;20521;-63
2023/08/04 06:10:57;;;;;;;3.00;1.40;;;22.40;95.40;;;;;;5032495;28;20085;-65
2023/08/04 06:13:23;;;;;;;3.53;1.40;;;22.40;95.50;;;;;;5023433;28;20050;-63
2023/08/04 06:15:49;;;;;;;2.97;1.20;;;22.50;95.40;;;;;;5022874;28;20041;-74
2023/08/04 06:18:15;;;;;;;2.00;1.25;;;22.50;96.50;;;;;;5032643;28;20049;-68
2023/08/04 06:20:40;;;;;;;3.10;1.40;;;22.30;95.30;;;;;;5032745;28;20045;-70
2023/08/04 06:23:06;;;;;;;3.00;1.35;;;22.50;95.30;;;;;;5030612;28;20128;-67
2023/08/04 06:25:32;;;;;;;1.92;1.30;;;22.60;96.30;;;;;;5024931;28;20049;-70
2023/08/04 06:27:58;;;;;;;2.28;1.30;;;22.70;95.20;;;;;;5030566;28;20056;-69
2023/08/04 06:30:25;;;;;;;3.13;1.40;;;22.50;95.20;;;;;;5043060;28;20046;-69
2023/08/04 06:32:51;;;;;;;2.80;1.48;;;22.50;95.20;;;;;;5019822;28;20054;-71
2023/08/04 06:35:17;;;;;;;2.80;1.20;;;22.50;96.40;;;;;;5032555;28;20050;-65
2023/08/04 06:37:43;;;;;;;3.58;1.30;;;22.60;95.10;;;;;;5028376;28;20048;-66
2023/08/04 06:40:09;;;;;;;3.28;1.45;;;22.40;95.00;;;;;;5029495;28;20045;-71
2023/08/04 06:42:35;;;;;;;1.92;1.23;;;22.50;96.00;;;;;;5031764;28;20080;-66
2023/08/04 06:45:01;;;;;;;2.60;1.33;;;22.50;96.10;;;;;;5032331;28;20142;-67
2023/08/04 06:47:27;;;;;;;2.70;1.38;;;22.80;95.00;;;;;;5025083;28;20046;-68
2023/08/04 06:49:53;;;;;;;4.10;1.60;;;22.60;94.90;;;;;;5013591;28;20045;-68
2023/08/04 06:52:19;;;;;;;3.17;1.60;;;22.70;94.90;;;;;;5030613;28;20415;-63
2023/08/04 06:54:45;;;;;;;3.10;1.67;;;22.60;96.00;;;;;;5030908;28;20057;-66
2023/08/04 06:57:11;;;;;;;4.57;1.52;;;22.90;95.00;;;;;;5030383;28;20045;-63
2023/08/04 06:59:37;;;;;;;3.35;1.45;;;22.70;96.30;;;;;;5063345;28;20077;-63
2023/08/04 07:02:08;;;;;;;3.55;1.52;;;22.60;94.80;;;;;;5031815;28;20448;-66
2023/08/04 07:04:37;;;;;;;2.95;1.27;;;22.70;95.90;;;;;;5025176;28;20045;-70
2023/08/04 07:07:05;;;;;;;3.33;1.52;;;22.80;94.40;;;;;;5032096;28;20053;-64
2023/08/04 07:09:31;;;;;;;4.20;1.92;;;22.50;95.90;;;;;;5014641;28;20049;-64
2023/08/04 07:11:57;;;;;;;3.72;1.70;;;22.70;94.80;;;;;;5012351;28;20042;-64
2023/08/04 07:14:23;;;;;;;4.25;1.80;;;22.70;94.80;;;;;;5025096;28;20377;-68
2023/08/04 07:16:49;;;;;;;3.97;1.67;;;22.70;94.90;;;;;;5029551;28;20037;-67
2023/08/04 07:19:15;;;;;;;3.65;1.77;;;22.70;94.90;;;;;;5013903;28;20046;-72
2023/08/04 07:21:41;;;;;;;3.80;1.70;;;22.80;95.90;;;;;;5024154;28;20041;-75
2023/08/04 07:24:07;;;;;;;5.80;2.30;;;22.70;95.90;;;;;;5023246;28;20056;-68
2023/08/04 07:26:34;;;;;;;3.40;1.73;;;22.70;94.90;;;;;;5028454;28;20041;-68
2023/08/04 07:29:01;;;;;;;4.10;1.90;;;22.60;94.80;;;;;;5030016;28;20045;-68
2023/08/04 07:31:27;;;;;;;5.50;2.10;;;22.70;94.80;;;;;;5014426;28;20079;-67
2023/08/04 07:33:53;;;;;;;5.00;1.95;;;22.60;96.10;;;;;;5029610;28;20037;-67
2023/08/04 07:36:19;;;;;;;5.05;2.00;;;22.80;94.80;;;;;;5026334;28;20037;-70
2023/08/04 07:38:44;;;;;;;5.05;2.00;;;22.60;96.00;;;;;;5026527;28;20115;-69
2023/08/04 07:41:18;;;;;;;4.03;1.80;;;22.60;95.80;;;;;;5030465;28;20807;-61
2023/08/04 07:43:44;;;;;;;4.45;2.20;;;22.90;95.90;;;;;;5049696;28;20057;-62
2023/08/04 07:46:25;;;;;;;4.22;2.20;;;22.60;94.40;;;;;;5034405;28;20071;-62
2023/08/04 07:48:51;;;;;;;4.53;1.90;;;22.90;96.10;;;;;;5034396;28;20045;-64
2023/08/04 07:51:17;;;;;;;4.57;2.40;;;22.80;94.60;;;;;;5033835;28;20049;-62
2023/08/04 07:53:43;;;;;;;5.18;1.98;;;22.90;95.60;;;;;;5027905;28;20045;-65
2023/08/04 07:56:09;;;;;;;3.85;2.20;;;23.10;94.70;;;;;;5023563;28;20121;-64
2023/08/04 07:58:35;;;;;;;3.85;1.95;;;22.80;94.40;;;;;;5015501;28;20455;-64
2023/08/04 08:01:03;;;;;;;3.60;2.10;;;22.90;95.80;;;;;;5024492;28;20095;-62
2023/08/04 08:03:31;;;;;;;5.57;2.28;;;22.90;94.50;;;;;;5032299;28;20049;-71
2023/08/04 08:05:57;;;;;;;5.35;2.22;;;23.20;94.60;;;;;;5032475;28;20130;-66
2023/08/04 08:08:22;;;;;;;7.28;2.63;;;23.10;94.40;;;;;;5034511;28;20120;-64
2023/08/04 08:10:49;;;;;;;5.88;2.42;;;23.00;94.30;;;;;;5061916;28;20095;-67
2023/08/04 08:13:15;;;;;;;5.75;2.55;;;23.20;94.10;;;;;;5020721;28;20038;-63
2023/08/04 08:15:40;;;;;;;6.55;2.72;;;23.20;94.10;;;;;;5030744;28;20048;-62
2023/08/04 08:18:06;;;;;;;6.05;2.55;;;23.70;95.40;;;;;;5032762;28;20199;-66
2023/08/04 08:20:32;;;;;;;5.90;2.45;;;23.80;94.00;;;;;;5032900;28;20061;-65
2023/08/04 08:22:58;;;;;;;4.05;2.40;;;23.90;94.00;;;;;;5032499;28;20483;-64
2023/08/04 08:25:24;;;;;;;5.97;2.42;;;23.60;93.40;;;;;;5033578;28;20045;-63
2023/08/04 08:27:50;;;;;;;5.68;2.53;;;23.60;93.60;;;;;;5034853;28;20120;-63
2023/08/04 08:30:16;;;;;;;3.80;2.22;;;23.70;93.70;;;;;;5022879;28;20045;-63
2023/08/04 08:32:42;;;;;;;6.57;2.75;;;23.80;94.80;;;;;;5031522;28;20056;-66
2023/08/04 08:35:08;;;;;;;7.50;2.50;;;23.90;94.60;;;;;;5033833;28;20132;-69
2023/08/04 08:37:34;;;;;;;6.63;2.60;;;23.70;93.40;;;;;;5032990;28;20052;-63
2023/08/04 08:39:59;;;;;;;6.45;2.58;;;23.80;93.50;;;;;;5033867;28;20045;-63
2023/08/04 08:42:26;;;;;;;4.45;2.60;;;23.60;93.50;;;;;;5031352;28;20046;-63
2023/08/04 08:44:51;;;;;;;4.97;2.38;;;23.70;93.50;;;;;;5034388;28;20054;-62
2023/08/04 08:47:19;;;;;;;6.32;2.50;;;23.60;93.40;;;;;;5021601;28;20045;-62
2023/08/04 08:49:46;;;;;;;6.30;2.38;;;23.70;93.60;;;;;;5033998;28;20447;-62
2023/08/04 08:52:12;;;;;;;5.32;2.50;;;23.70;93.60;;;;;;5030347;28;20050;-63
2023/08/04 08:54:37;;;;;;;3.92;2.38;;;23.60;94.80;;;;;;5029963;28;20458;-63
2023/08/04 08:57:04;;;;;;;5.60;2.30;;;23.60;93.60;;;;;;5015750;28;20051;-66
2023/08/04 08:59:31;;;;;;;3.80;2.10;;;23.40;93.40;;;;;;5029101;28;20090;-63
2023/08/04 09:01:58;;;;;;;5.38;2.63;;;23.70;93.80;;;;;;5028275;28;20049;-64
2023/08/04 09:04:24;;;;;;;5.80;2.53;;;23.50;95.00;;;;;;5017431;28;20411;-62
2023/08/04 09:06:49;;;;;;;6.68;2.50;;;23.50;93.90;;;;;;5028537;28;20041;-62
2023/08/04 09:09:16;;;;;;;6.18;2.47;;;23.40;93.50;;;;;;5030653;28;20060;-62
2023/08/04 09:11:42;;;;;;;5.25;2.42;;;23.60;93.70;;;;;;5028924;28;20046;-63
2023/08/04 09:14:07;;;;;;;4.65;2.25;;;23.50;93.90;;;;;;4996755;28;20053;-63
2023/08/04 09:16:36;;;;;;;5.07;2.25;;;23.70;94.80;;;;;;5022809;28;20152;-62
2023/08/04 09:19:07;;;;;;;5.93;2.42;;;23.50;93.70;;;;;;5030914;28;20056;-63
2023/08/04 09:21:35;;;;;;;5.88;2.42;;;23.60;93.00;;;;;;5018003;28;20041;-63
2023/08/04 09:24:07;;;;;;;5.80;2.80;;;23.80;93.60;;;;;;4996426;28;20080;-63
2023/08/04 09:26:46;;;;;;;7.15;3.00;;;23.40;93.40;;;;;;5005383;28;20115;-63
2023/08/04 09:29:13;;;;;;;5.15;2.60;;;23.50;94.70;;;;;;5057661;28;20048;-67
2023/08/04 09:31:40;;;;;;;5.75;2.72;;;23.50;93.60;;;;;;5013694;28;20057;-62
2023/08/04 09:34:08;;;;;;;6.07;2.47;;;23.40;93.60;;;;;;5012418;28;20057;-61
2023/08/04 09:36:40;;;;;;;5.55;2.80;;;23.50;93.60;;;;;;5001593;28;20037;-62
2023/08/04 09:39:09;;;;;;;5.72;3.00;;;23.60;93.80;;;;;;5015104;28;20129;-69
2023/08/04 09:41:40;;;;;;;6.30;2.78;;;23.40;93.60;;;;;;5012694;28;20046;-72
2023/08/04 09:44:08;;;;;;;6.90;2.53;;;23.60;93.30;;;;;;5012467;28;20065;-62
2023/08/04 09:46:51;;;;;;;5.65;2.80;;;23.50;94.70;;;;;;5030155;28;20154;-62
2023/08/04 09:49:18;;;;;;;4.90;2.67;;;23.60;93.70;;;;;;5047621;28;20041;-62
2023/08/04 09:51:44;;;;;;;7.75;2.60;;;23.50;93.90;;;;;;5048978;28;20088;-70
2023/08/04 09:54:10;;;;;;;6.65;2.55;;;23.70;94.60;;;;;;5030627;28;20092;-62
2023/08/04 09:56:36;;;;;;;5.65;2.67;;;23.80;94.70;;;;;;5022038;28;20045;-63
2023/08/04 09:59:02;;;;;;;8.95;2.88;;;23.80;93.30;;;;;;5029287;28;20404;-62
2023/08/04 10:01:29;;;;;;;7.88;2.58;;;23.60;93.30;;;;;;5031216;28;20053;-62
2023/08/04 10:03:57;;;;;;;9.05;2.90;;;23.70;93.10;;;;;;5030760;28;20052;-64
2023/08/04 10:06:23;;;;;;;7.80;2.85;;;23.70;94.60;;;;;;5024788;28;20052;-68
2023/08/04 10:08:50;;;;;;;7.97;2.63;;;23.80;94.50;;;;;;5020175;28;20510;-73
2023/08/04 10:11:16;;;;;;;6.85;2.47;;;23.70;94.60;;;;;;4999156;28;20068;-70
2023/08/04 10:13:43;;;;;;;7.68;2.80;;;23.60;94.50;;;;;;5032908;28;20132;-76
2023/08/04 10:16:11;;;;;;;6.05;2.80;;;23.70;93.40;;;;;;5014912;28;20045;-61
2023/08/04 10:18:53;;;;;;;7.90;2.80;;;23.60;93.40;;;;;;5048527;28;20132;-61
2023/08/04 10:21:20;;;;;;;;;;;23.60;92.90;;;;;;5047556;28;20100;-77
2023/08/04 10:23:46;;;;;;;9.40;2.60;;;23.50;93.50;;;;;;5031215;28;19927;-74
2023/08/04 10:26:12;;;;;;;8.55;2.83;;;23.70;93.30;;;;;;5031543;28;20072;-75
2023/08/04 10:29:03;;;;;;;5.68;2.33;;;23.50;93.40;;;;;;5020815;28;20132;-74
2023/08/04 10:31:51;;;;;;;9.65;2.80;;;23.90;93.00;;;;;;5013291;28;20469;-72
2023/08/04 10:34:17;;;;;;;7.00;2.70;;;23.70;93.00;;;;;;5012895;28;20049;-75
2023/08/04 10:36:53;;;;;;;8.18;2.70;;;24.00;93.30;;;;;;5012738;28;20034;-79
2023/08/04 10:39:30;;;;;;;4.82;2.50;;;23.80;93.50;;;;;;5029827;28;20523;-63
2023/08/04 10:41:56;;;;;;;6.97;2.60;;;23.80;93.40;;;;;;5027148;28;20376;-69
2023/08/04 10:44:52;;;;;;;5.72;2.10;;;23.50;93.20;;;;;;5027301;28;20128;-73
2023/08/04 10:47:35;;;;;;;7.28;2.80;;;23.60;92.70;;;;;;5012312;28;20057;-80
2023/08/04 10:50:03;;;;;;;4.68;2.30;;;23.80;93.50;;;;;;5015627;28;20045;-73
2023/08/04 10:52:30;;;;;;;6.72;2.67;;;23.70;93.20;;;;;;5028131;28;20041;-69
2023/08/04 10:54:56;;;;;;;5.07;2.40;;;23.70;94.30;;;;;;5028862;28;20056;-77
2023/08/04 10:57:23;;;;;;;5.22;2.35;;;24.00;93.20;;;;;;5027521;28;20037;-71
2023/08/04 10:59:49;;;;;;;6.38;2.10;;;23.70;94.40;;;;;;5022551;28;20133;-69
2023/08/04 11:02:19;;;;;;;6.00;2.92;;;23.90;93.20;;;;;;5026652;28;20556;-65
2023/08/04 11:04:47;;;;;;;6.20;2.40;;;24.00;93.30;;;;;;5020326;28;20046;-67
2023/08/04 11:07:14;;;;;;;6.30;2.33;;;23.90;94.50;;;;;;5030819;28;20053;-69
2023/08/04 11:09:40;;;;;;;4.55;2.40;;;23.70;93.10;;;;;;5026814;28;20058;-64
2023/08/04 11:12:06;;;;;;;5.88;2.25;;;23.90;92.90;;;;;;5027791;28;20053;-63
2023/08/04 11:14:33;;;;;;;7.47;2.55;;;23.80;92.90;;;;;;5018330;28;20045;-63
2023/08/04 11:17:01;;;;;;;6.85;2.22;;;23.90;93.10;;;;;;5034504;28;20045;-63
2023/08/04 11:19:29;;;;;;;6.35;2.28;;;24.00;92.90;;;;;;5029538;28;20052;-69
2023/08/04 11:21:55;;;;;;;6.15;2.50;;;24.00;92.70;;;;;;5031299;28;20056;-64
2023/08/04 11:24:25;;;;;;;6.55;2.50;;;24.00;92.80;;;;;;5026667;28;20106;-73
2023/08/04 11:26:51;;;;;;;7.28;2.10;;;24.00;92.70;;;;;;5067377;28;20057;-70
2023/08/04 11:29:18;;;;;;;5.97;2.40;;;24.00;93.00;;;;;;5033975;28;20053;-68
2023/08/04 11:31:47;;;;;;;6.10;2.08;;;24.10;94.10;;;;;;5049079;28;20048;-75
2023/08/04 11:34:13;;;;;;;6.03;2.30;;;24.20;94.20;;;;;;5035892;28;20072;-68
2023/08/04 11:36:40;;;;;;;5.25;2.30;;;24.00;92.80;;;;;;5005351;28;20042;-71
2023/08/04 11:39:06;;;;;;;6.05;2.45;;;24.10;92.90;;;;;;5022739;28;20065;-65
2023/08/04 11:41:32;;;;;;;6.55;2.63;;;24.10;92.80;;;;;;5009693;28;20049;-73
2023/08/04 11:44:01;;;;;;;4.25;2.00;;;23.80;92.40;;;;;;5032970;28;20407;-75
2023/08/04 11:46:27;;;;;;;5.38;2.35;;;23.90;92.80;;;;;;5033579;28;20064;-71
2023/08/04 11:48:53;;;;;;;5.32;1.92;;;24.00;92.70;;;;;;5032938;28;20388;-75
2023/08/04 11:51:20;;;;;;;4.60;2.35;;;24.10;92.80;;;;;;5021049;28;20045;-75
2023/08/04 11:53:46;;;;;;;5.10;1.85;;;24.00;92.80;;;;;;5026207;28;20054;-73
2023/08/04 11:56:12;;;;;;;5.53;2.20;;;24.10;92.70;;;;;;5015528;28;20112;-70
2023/08/04 11:58:45;;;;;;;5.32;2.00;;;24.10;92.50;;;;;;5014667;28;20056;-73
2023/08/04 12:01:28;;;;;;;5.72;1.98;;;24.10;92.50;;;;;;5024942;28;20045;-73
2023/08/04 12:03:54;;;;;;;5.72;2.03;;;24.20;92.80;;;;;;5031714;28;20048;-76
2023/08/04 12:06:21;;;;;;;7.40;2.10;;;24.30;92.60;;;;;;5028335;28;20046;-62
2023/08/04 12:09:07;;;;;;;5.95;1.90;;;24.30;92.70;;;;;;5029975;28;20058;-64
2023/08/04 12:11:47;;;;;;;6.40;2.05;;;24.10;92.60;;;;;;5020961;28;20050;-63
2023/08/04 12:14:14;;;;;;;4.75;2.25;;;24.20;92.30;;;;;;5024647;28;20503;-63
2023/08/04 12:17:02;;;;;;;6.30;2.33;;;24.00;92.20;;;;;;5034903;28;20407;-67
2023/08/04 12:19:30;;;;;;;8.30;2.20;;;24.20;92.70;;;;;;5034225;28;20053;-61
2023/08/04 12:21:58;;;;;;;6.10;2.30;;;24.10;92.50;;;;;;5024677;28;20038;-61
2023/08/04 12:24:24;;;;;;;5.63;2.35;;;24.40;92.50;;;;;;5030397;28;20493;-62
2023/08/04 12:26:50;;;;;;;5.38;2.38;;;24.10;92.30;;;;;;5033369;28;20069;-61
2023/08/04 12:29:16;;;;;;;9.00;2.00;;;24.00;92.20;;;;;;5027614;28;20356;-61
2023/08/04 12:31:42;;;;;;;4.18;1.63;;;24.20;92.10;;;;;;5032096;28;20046;-61
2023/08/04 12:34:09;;;;;;;5.88;1.83;;;24.10;92.10;;;;;;5016247;28;20053;-61
2023/08/04 12:36:35;;;;;;;3.97;1.70;;;24.20;92.20;;;;;;5030373;28;20045;-61
2023/08/04 12:39:03;;;;;;;4.30;1.80;;;24.30;92.00;;;;;;5031546;28;20126;-62
2023/08/04 12:41:32;;;;;;;6.35;2.15;;;24.20;93.30;;;;;;5032953;28;20131;-61
2023/08/04 12:43:58;;;;;;;4.88;1.90;;;24.00;91.30;;;;;;5031705;28;20057;-61
2023/08/04 12:46:26;;;;;;;5.07;1.88;;;24.00;91.80;;;;;;5014533;28;20042;-61
2023/08/04 12:48:58;;;;;;;5.35;1.90;;;24.40;91.90;;;;;;5013606;28;20070;-63